Terminal Aerodrome Forecast
Issued by NWS

Home | Current Version | Previous Version | Text Only | Print | Product List | Glossary On
Versions: 1 2 3 4 5 6 7 8 9 10 11 12
000
FTUS46 KLOX 281100
TAFPMD
TAF
KPMD 281130Z 2812/2912 VRB06KT P6SM SKC
     FM282100 26010KT P6SM SKC
     FM290700 VRB03KT P6SM SCT200=

USA.gov is the U.S. government's official web portal to all federal, state and local government web resources and services.